Detall de PIREP

Printer-friendly versionPDF version

[2014/10/25 18:41:00]
Flight IATA:CT1056
Pilot Number:042
Company ICAO:CAT
Aircraft Type:A320/E
PAX:3
Departing Airport: LEIB
Destination Airport: LEPA
Alternate Airport:LEMH
Online: No
Route:LAMPA
Flight Level:F4000
No Slew and time accel
No pause
Crash detect
Detect pilot in Cockpit between each 30 and 45 minutes
18:41 Zero fuel Weight: 4592 Lbs, Fuel Weight: 848 Lbs
18:41 VATSIM:LEIB 271030Z 08008KT 9999 FEW018 SCT025 24/19 Q1021 NOSIG
18:41 VATSIM:LEPA 271030Z 06010KT 030V090 9999 FEW020 24/16 Q1021 NOSIG
18:43 Parking Brakes off
18:46 Take-off
18:46 Take off Weight: 5437 Lbs
18:46 Wind: 080º @ 008 Knots Heading: 062º
18:46 POS N38º 52´ 24´´ E001º 22´ 28´´
18:46 Gear Up: 099 Knots
18:46 Flaps:2 at 100 Knots
18:47 Flaps:1 at 118 Knots
19:01 Wind:085º@007 Knots Heading: 025º Ground Speed: 154 Knots Altitude 2998 ft
19:08 Flaps:0 at 150 Knots
19:16 Wind:059º@007 Knots Heading: 059º Ground Speed: 167 Knots Altitude 3001 ft
19:16 Gear Down: 164 Knots
19:16 Flaps:1 at 164 Knots
19:20 TouchDown:Rate -355 ft/min Speed: 74 Knots
19:21 VATSIM:LEPA 271100Z 07006KT 030V130 9999 FEW020 24/15 Q1021 NOSIG
19:21 Land
19:21 Wind:057º@006 Knots
19:21 Heading: 109º
19:21 Flight Duration: 00:35
19:21 Landing Weight: 5320 Lbs
19:21 POS N39º 33´ 10´´ E002º 43´ 22´´
19:22 Parking brakes on
19:22 Block to Block Duration: 00:39
19:22 Final Fuel: 727 Lbls
19:22 Spent Fuel: 121 Lbls
19:22 Flight Length: 86 NM
19:22 TOD Land Length: 86 NM

Exportar CSV

Powered by Drupal - Modified by Danger4k